sensor_id;sensor_type;location;lat;lon;timestamp;temperature;humidity
25128;DHT22;13107;51.304;6.866;2022-09-13T00:02:05;16.80;99.90
25128;DHT22;13107;51.304;6.866;2022-09-13T00:06:13;16.70;99.90
25128;DHT22;13107;51.304;6.866;2022-09-13T00:10:15;16.80;99.90
25128;DHT22;13107;51.304;6.866;2022-09-13T00:14:17;16.70;99.90
25128;DHT22;13107;51.304;6.866;2022-09-13T00:18:18;16.70;99.90
25128;DHT22;13107;51.304;6.866;2022-09-13T00:22:20;16.70;99.90
25128;DHT22;13107;51.304;6.866;2022-09-13T00:26:25;16.70;99.90
25128;DHT22;13107;51.304;6.866;2022-09-13T00:30:34;16.70;99.90
25128;DHT22;13107;51.304;6.866;2022-09-13T00:34:36;16.70;99.90
25128;DHT22;13107;51.304;6.866;2022-09-13T00:38:38;16.80;99.90
25128;DHT22;13107;51.304;6.866;2022-09-13T00:42:40;16.80;99.90
25128;DHT22;13107;51.304;6.866;2022-09-13T00:46:46;16.80;99.90
25128;DHT22;13107;51.304;6.866;2022-09-13T00:50:52;16.80;99.90
25128;DHT22;13107;51.304;6.866;2022-09-13T00:55:02;16.80;99.90
25128;DHT22;13107;51.304;6.866;2022-09-13T00:59:08;16.90;99.90
25128;DHT22;13107;51.304;6.866;2022-09-13T01:03:15;16.90;99.90
25128;DHT22;13107;51.304;6.866;2022-09-13T01:07:18;16.90;99.90
25128;DHT22;13107;51.304;6.866;2022-09-13T01:11:26;16.80;99.90
25128;DHT22;13107;51.304;6.866;2022-09-13T01:15:30;16.80;99.90
25128;DHT22;13107;51.304;6.866;2022-09-13T01:19:31;16.80;99.90
25128;DHT22;13107;51.304;6.866;2022-09-13T01:28:34;16.50;99.90
25128;DHT22;13107;51.304;6.866;2022-09-13T01:32:51;16.50;99.90
25128;DHT22;13107;51.304;6.866;2022-09-13T01:50:16;16.60;99.90
25128;DHT22;13107;51.304;6.866;2022-09-13T01:59:19;16.60;99.90
25128;DHT22;13107;51.304;6.866;2022-09-13T02:03:30;16.60;99.90
25128;DHT22;13107;51.304;6.866;2022-09-13T02:07:40;16.60;99.90
25128;DHT22;13107;51.304;6.866;2022-09-13T02:11:44;16.60;99.90
25128;DHT22;13107;51.304;6.866;2022-09-13T02:15:52;16.60;99.90
25128;DHT22;13107;51.304;6.866;2022-09-13T02:20:01;16.60;99.90
25128;DHT22;13107;51.304;6.866;2022-09-13T02:24:06;16.60;99.90
25128;DHT22;13107;51.304;6.866;2022-09-13T02:28:12;16.60;99.90
25128;DHT22;13107;51.304;6.866;2022-09-13T02:32:23;16.60;99.90
25128;DHT22;13107;51.304;6.866;2022-09-13T02:36:31;16.50;99.90
25128;DHT22;13107;51.304;6.866;2022-09-13T02:40:42;16.50;99.90
25128;DHT22;13107;51.304;6.866;2022-09-13T02:44:56;16.60;99.90
25128;DHT22;13107;51.304;6.866;2022-09-13T02:57:41;16.60;99.90
25128;DHT22;13107;51.304;6.866;2022-09-13T03:02:00;16.60;99.90
25128;DHT22;13107;51.304;6.866;2022-09-13T03:06:04;16.60;99.90
25128;DHT22;13107;51.304;6.866;2022-09-13T03:10:08;16.60;99.90
25128;DHT22;13107;51.304;6.866;2022-09-13T03:31:11;16.70;99.90
25128;DHT22;13107;51.304;6.866;2022-09-13T03:40:09;16.60;99.90
25128;DHT22;13107;51.304;6.866;2022-09-13T03:44:13;16.50;99.90
25128;DHT22;13107;51.304;6.866;2022-09-13T03:48:17;16.40;99.90
25128;DHT22;13107;51.304;6.866;2022-09-13T03:52:19;16.30;99.90
25128;DHT22;13107;51.304;6.866;2022-09-13T03:56:21;16.20;99.90
25128;DHT22;13107;51.304;6.866;2022-09-13T04:00:23;16.20;99.90
25128;DHT22;13107;51.304;6.866;2022-09-13T04:04:25;16.10;99.90
25128;DHT22;13107;51.304;6.866;2022-09-13T04:08:27;16.10;99.90
25128;DHT22;13107;51.304;6.866;2022-09-13T04:12:29;16.10;99.90
25128;DHT22;13107;51.304;6.866;2022-09-13T04:16:31;16.10;99.90
25128;DHT22;13107;51.304;6.866;2022-09-13T04:20:33;16.10;99.90
25128;DHT22;13107;51.304;6.866;2022-09-13T04:24:36;16.00;99.90
25128;DHT22;13107;51.304;6.866;2022-09-13T04:28:39;15.90;99.90
25128;DHT22;13107;51.304;6.866;2022-09-13T04:32:43;15.80;99.90
25128;DHT22;13107;51.304;6.866;2022-09-13T04:36:46;15.80;99.90
25128;DHT22;13107;51.304;6.866;2022-09-13T04:40:52;15.80;99.90
25128;DHT22;13107;51.304;6.866;2022-09-13T04:44:54;15.80;99.90
25128;DHT22;13107;51.304;6.866;2022-09-13T04:48:56;15.80;99.90
25128;DHT22;13107;51.304;6.866;2022-09-13T04:52:57;15.80;99.90
25128;DHT22;13107;51.304;6.866;2022-09-13T04:56:59;15.80;99.90
25128;DHT22;13107;51.304;6.866;2022-09-13T05:01:06;15.80;99.90
25128;DHT22;13107;51.304;6.866;2022-09-13T05:05:08;15.80;99.90
25128;DHT22;13107;51.304;6.866;2022-09-13T05:09:14;15.70;99.90
25128;DHT22;13107;51.304;6.866;2022-09-13T05:13:16;15.70;99.90
25128;DHT22;13107;51.304;6.866;2022-09-13T05:17:18;15.70;99.90
25128;DHT22;13107;51.304;6.866;2022-09-13T05:21:21;15.70;99.90
25128;DHT22;13107;51.304;6.866;2022-09-13T05:25:22;15.80;99.90
25128;DHT22;13107;51.304;6.866;2022-09-13T05:29:26;15.80;99.90
25128;DHT22;13107;51.304;6.866;2022-09-13T05:33:30;15.80;99.90
25128;DHT22;13107;51.304;6.866;2022-09-13T05:37:32;15.70;99.90
25128;DHT22;13107;51.304;6.866;2022-09-13T05:41:34;15.80;99.90
25128;DHT22;13107;51.304;6.866;2022-09-13T05:45:36;15.80;99.90
25128;DHT22;13107;51.304;6.866;2022-09-13T05:49:37;15.80;99.90
25128;DHT22;13107;51.304;6.866;2022-09-13T05:53:59;15.80;99.90
25128;DHT22;13107;51.304;6.866;2022-09-13T05:58:01;15.90;99.90
25128;DHT22;13107;51.304;6.866;2022-09-13T06:02:03;16.00;99.90
25128;DHT22;13107;51.304;6.866;2022-09-13T06:06:05;16.00;99.90
25128;DHT22;13107;51.304;6.866;2022-09-13T06:10:09;16.10;99.90
25128;DHT22;13107;51.304;6.866;2022-09-13T06:14:11;16.20;99.90
25128;DHT22;13107;51.304;6.866;2022-09-13T06:18:13;16.30;99.90
25128;DHT22;13107;51.304;6.866;2022-09-13T06:22:15;16.40;99.90
25128;DHT22;13107;51.304;6.866;2022-09-13T06:26:18;16.50;99.90
25128;DHT22;13107;51.304;6.866;2022-09-13T06:30:20;16.60;99.90
25128;DHT22;13107;51.304;6.866;2022-09-13T06:34:22;16.70;99.90
25128;DHT22;13107;51.304;6.866;2022-09-13T06:38:29;16.70;99.90
25128;DHT22;13107;51.304;6.866;2022-09-13T06:42:33;16.80;99.90
25128;DHT22;13107;51.304;6.866;2022-09-13T06:46:35;17.00;99.90
25128;DHT22;13107;51.304;6.866;2022-09-13T06:50:37;17.10;99.90
25128;DHT22;13107;51.304;6.866;2022-09-13T06:54:39;17.20;99.90
25128;DHT22;13107;51.304;6.866;2022-09-13T06:58:42;17.30;99.90
25128;DHT22;13107;51.304;6.866;2022-09-13T07:02:49;17.40;99.90
25128;DHT22;13107;51.304;6.866;2022-09-13T07:06:51;17.40;99.90
25128;DHT22;13107;51.304;6.866;2022-09-13T07:10:56;17.60;99.90
25128;DHT22;13107;51.304;6.866;2022-09-13T07:14:58;17.70;99.90
25128;DHT22;13107;51.304;6.866;2022-09-13T07:19:02;17.80;99.90
25128;DHT22;13107;51.304;6.866;2022-09-13T07:23:06;17.90;99.90
25128;DHT22;13107;51.304;6.866;2022-09-13T07:27:07;18.00;99.90
25128;DHT22;13107;51.304;6.866;2022-09-13T07:31:19;18.10;99.90
25128;DHT22;13107;51.304;6.866;2022-09-13T07:35:21;18.10;99.90
25128;DHT22;13107;51.304;6.866;2022-09-13T07:39:23;18.20;99.90
25128;DHT22;13107;51.304;6.866;2022-09-13T07:43:25;18.30;99.90
25128;DHT22;13107;51.304;6.866;2022-09-13T07:47:27;18.40;99.90
25128;DHT22;13107;51.304;6.866;2022-09-13T07:51:31;18.50;99.90
25128;DHT22;13107;51.304;6.866;2022-09-13T07:55:33;18.70;99.90
25128;DHT22;13107;51.304;6.866;2022-09-13T07:59:34;18.80;99.90
25128;DHT22;13107;51.304;6.866;2022-09-13T08:03:36;18.90;99.90
25128;DHT22;13107;51.304;6.866;2022-09-13T08:07:38;19.20;99.90
25128;DHT22;13107;51.304;6.866;2022-09-13T08:15:43;19.40;99.90
25128;DHT22;13107;51.304;6.866;2022-09-13T08:19:45;19.50;99.90
25128;DHT22;13107;51.304;6.866;2022-09-13T08:23:47;19.50;99.90
25128;DHT22;13107;51.304;6.866;2022-09-13T08:27:49;19.60;99.90
25128;DHT22;13107;51.304;6.866;2022-09-13T08:31:50;19.80;99.90
25128;DHT22;13107;51.304;6.866;2022-09-13T08:35:52;20.00;99.90
25128;DHT22;13107;51.304;6.866;2022-09-13T08:39:55;20.10;99.90
25128;DHT22;13107;51.304;6.866;2022-09-13T08:48:13;20.30;99.90
25128;DHT22;13107;51.304;6.866;2022-09-13T08:56:55;20.50;99.90
25128;DHT22;13107;51.304;6.866;2022-09-13T09:05:18;20.70;99.90
25128;DHT22;13107;51.304;6.866;2022-09-13T09:09:21;20.90;99.90
25128;DHT22;13107;51.304;6.866;2022-09-13T09:13:29;21.10;99.90
25128;DHT22;13107;51.304;6.866;2022-09-13T09:17:59;21.40;99.90
25128;DHT22;13107;51.304;6.866;2022-09-13T09:22:05;21.60;99.90
25128;DHT22;13107;51.304;6.866;2022-09-13T09:26:22;21.90;99.90
25128;DHT22;13107;51.304;6.866;2022-09-13T09:30:38;22.00;99.90
25128;DHT22;13107;51.304;6.866;2022-09-13T09:34:47;22.30;99.90
25128;DHT22;13107;51.304;6.866;2022-09-13T09:38:52;22.60;99.90
25128;DHT22;13107;51.304;6.866;2022-09-13T09:42:55;23.00;99.90
25128;DHT22;13107;51.304;6.866;2022-09-13T09:47:03;23.40;99.90
25128;DHT22;13107;51.304;6.866;2022-09-13T09:51:08;23.80;99.90
25128;DHT22;13107;51.304;6.866;2022-09-13T09:59:34;25.40;99.90
25128;DHT22;13107;51.304;6.866;2022-09-13T10:03:38;25.40;99.90
25128;DHT22;13107;51.304;6.866;2022-09-13T10:07:40;25.50;99.90
25128;DHT22;13107;51.304;6.866;2022-09-13T10:11:52;25.40;99.90
25128;DHT22;13107;51.304;6.866;2022-09-13T10:16:00;25.10;99.90
25128;DHT22;13107;51.304;6.866;2022-09-13T10:24:15;25.10;99.90
25128;DHT22;13107;51.304;6.866;2022-09-13T10:28:18;25.60;99.90
25128;DHT22;13107;51.304;6.866;2022-09-13T10:32:20;26.00;99.90
25128;DHT22;13107;51.304;6.866;2022-09-13T10:36:27;26.20;99.90
25128;DHT22;13107;51.304;6.866;2022-09-13T10:40:50;26.20;99.90
25128;DHT22;13107;51.304;6.866;2022-09-13T10:45:00;26.30;99.90
25128;DHT22;13107;51.304;6.866;2022-09-13T10:49:02;26.10;99.90
25128;DHT22;13107;51.304;6.866;2022-09-13T10:53:35;25.70;99.90
25128;DHT22;13107;51.304;6.866;2022-09-13T10:57:37;25.60;99.90
25128;DHT22;13107;51.304;6.866;2022-09-13T11:01:47;25.40;99.90
25128;DHT22;13107;51.304;6.866;2022-09-13T11:32:11;24.70;99.90
25128;DHT22;13107;51.304;6.866;2022-09-13T11:41:02;24.30;99.90
25128;DHT22;13107;51.304;6.866;2022-09-13T11:45:15;24.50;99.90
25128;DHT22;13107;51.304;6.866;2022-09-13T11:53:58;24.80;99.90
25128;DHT22;13107;51.304;6.866;2022-09-13T11:58:05;25.00;99.90
25128;DHT22;13107;51.304;6.866;2022-09-13T12:02:28;25.00;99.90
25128;DHT22;13107;51.304;6.866;2022-09-13T12:06:44;24.80;99.90
25128;DHT22;13107;51.304;6.866;2022-09-13T12:10:57;24.90;99.90
25128;DHT22;13107;51.304;6.866;2022-09-13T12:15:03;24.80;99.90
25128;DHT22;13107;51.304;6.866;2022-09-13T12:19:29;25.00;99.90
25128;DHT22;13107;51.304;6.866;2022-09-13T12:23:41;25.20;99.90
25128;DHT22;13107;51.304;6.866;2022-09-13T12:28:03;25.20;99.90
25128;DHT22;13107;51.304;6.866;2022-09-13T12:32:09;25.60;99.90
25128;DHT22;13107;51.304;6.866;2022-09-13T12:36:28;25.70;99.90
25128;DHT22;13107;51.304;6.866;2022-09-13T12:45:24;25.70;99.90
25128;DHT22;13107;51.304;6.866;2022-09-13T13:06:34;25.90;99.90
25128;DHT22;13107;51.304;6.866;2022-09-13T13:10:38;26.10;99.90
25128;DHT22;13107;51.304;6.866;2022-09-13T13:18:45;26.20;99.90
25128;DHT22;13107;51.304;6.866;2022-09-13T13:22:50;26.40;99.90
25128;DHT22;13107;51.304;6.866;2022-09-13T13:26:53;26.50;99.90
25128;DHT22;13107;51.304;6.866;2022-09-13T13:30:54;26.60;99.90
25128;DHT22;13107;51.304;6.866;2022-09-13T13:35:24;26.40;99.90
25128;DHT22;13107;51.304;6.866;2022-09-13T13:43:32;26.40;99.90
25128;DHT22;13107;51.304;6.866;2022-09-13T13:51:35;26.20;99.90
25128;DHT22;13107;51.304;6.866;2022-09-13T13:56:32;26.20;99.90
25128;DHT22;13107;51.304;6.866;2022-09-13T14:00:30;25.90;99.90
25128;DHT22;13107;51.304;6.866;2022-09-13T14:04:43;25.90;99.90
25128;DHT22;13107;51.304;6.866;2022-09-13T14:09:03;25.30;99.90
25128;DHT22;13107;51.304;6.866;2022-09-13T14:13:19;25.10;99.90
25128;DHT22;13107;51.304;6.866;2022-09-13T14:21:45;24.80;99.90
25128;DHT22;13107;51.304;6.866;2022-09-13T14:26:05;24.90;99.90
25128;DHT22;13107;51.304;6.866;2022-09-13T14:30:26;24.90;99.90
25128;DHT22;13107;51.304;6.866;2022-09-13T14:34:31;24.70;99.90
25128;DHT22;13107;51.304;6.866;2022-09-13T14:38:34;24.60;99.90
25128;DHT22;13107;51.304;6.866;2022-09-13T14:42:43;24.60;99.90
25128;DHT22;13107;51.304;6.866;2022-09-13T14:46:48;24.40;99.90
25128;DHT22;13107;51.304;6.866;2022-09-13T14:55:02;24.30;99.90
25128;DHT22;13107;51.304;6.866;2022-09-13T14:59:13;24.20;99.90
25128;DHT22;13107;51.304;6.866;2022-09-13T15:03:17;24.20;99.90
25128;DHT22;13107;51.304;6.866;2022-09-13T15:11:32;24.30;99.90
25128;DHT22;13107;51.304;6.866;2022-09-13T15:15:39;24.20;99.90
25128;DHT22;13107;51.304;6.866;2022-09-13T15:19:47;24.20;99.90
25128;DHT22;13107;51.304;6.866;2022-09-13T15:23:49;24.10;99.90
25128;DHT22;13107;51.304;6.866;2022-09-13T15:27:52;23.90;99.90
25128;DHT22;13107;51.304;6.866;2022-09-13T15:31:58;24.00;99.90
25128;DHT22;13107;51.304;6.866;2022-09-13T15:36:27;23.80;99.90
25128;DHT22;13107;51.304;6.866;2022-09-13T15:40:29;23.70;99.90
25128;DHT22;13107;51.304;6.866;2022-09-13T15:44:41;23.50;99.90
25128;DHT22;13107;51.304;6.866;2022-09-13T15:48:49;23.40;99.90
25128;DHT22;13107;51.304;6.866;2022-09-13T15:52:53;23.50;99.90
25128;DHT22;13107;51.304;6.866;2022-09-13T15:56:55;23.30;99.90
25128;DHT22;13107;51.304;6.866;2022-09-13T16:00:59;23.30;99.90
25128;DHT22;13107;51.304;6.866;2022-09-13T16:05:00;23.10;99.90
25128;DHT22;13107;51.304;6.866;2022-09-13T16:09:23;23.00;99.90
25128;DHT22;13107;51.304;6.866;2022-09-13T16:13:24;23.00;99.90
25128;DHT22;13107;51.304;6.866;2022-09-13T16:17:26;23.00;99.90
25128;DHT22;13107;51.304;6.866;2022-09-13T16:21:28;23.00;99.90
25128;DHT22;13107;51.304;6.866;2022-09-13T16:25:30;23.00;99.90
25128;DHT22;13107;51.304;6.866;2022-09-13T16:29:32;22.90;99.90
25128;DHT22;13107;51.304;6.866;2022-09-13T16:33:34;22.80;99.90
25128;DHT22;13107;51.304;6.866;2022-09-13T16:37:36;22.80;99.90
25128;DHT22;13107;51.304;6.866;2022-09-13T16:41:38;22.80;99.90
25128;DHT22;13107;51.304;6.866;2022-09-13T16:45:41;22.60;99.90
25128;DHT22;13107;51.304;6.866;2022-09-13T16:49:43;22.60;99.90
25128;DHT22;13107;51.304;6.866;2022-09-13T16:53:45;22.50;99.90
25128;DHT22;13107;51.304;6.866;2022-09-13T16:57:46;22.50;99.90
25128;DHT22;13107;51.304;6.866;2022-09-13T17:01:50;22.40;99.90
25128;DHT22;13107;51.304;6.866;2022-09-13T17:05:58;22.30;99.90
25128;DHT22;13107;51.304;6.866;2022-09-13T17:09:59;22.20;99.90
25128;DHT22;13107;51.304;6.866;2022-09-13T17:14:03;22.10;99.90
25128;DHT22;13107;51.304;6.866;2022-09-13T17:18:06;22.00;99.90
25128;DHT22;13107;51.304;6.866;2022-09-13T17:22:09;21.80;99.90
25128;DHT22;13107;51.304;6.866;2022-09-13T17:26:11;21.70;99.90
25128;DHT22;13107;51.304;6.866;2022-09-13T17:30:13;21.70;99.90
25128;DHT22;13107;51.304;6.866;2022-09-13T17:34:15;21.50;99.90
25128;DHT22;13107;51.304;6.866;2022-09-13T17:38:16;21.50;99.90
25128;DHT22;13107;51.304;6.866;2022-09-13T17:42:18;21.30;99.90
25128;DHT22;13107;51.304;6.866;2022-09-13T17:46:25;21.20;99.90
25128;DHT22;13107;51.304;6.866;2022-09-13T17:50:29;21.10;99.90
25128;DHT22;13107;51.304;6.866;2022-09-13T17:54:31;21.00;99.90
25128;DHT22;13107;51.304;6.866;2022-09-13T17:58:33;20.90;99.90
25128;DHT22;13107;51.304;6.866;2022-09-13T18:02:35;20.80;99.90
25128;DHT22;13107;51.304;6.866;2022-09-13T18:06:37;20.70;99.90
25128;DHT22;13107;51.304;6.866;2022-09-13T18:10:43;20.60;99.90
25128;DHT22;13107;51.304;6.866;2022-09-13T18:15:05;20.50;99.90
25128;DHT22;13107;51.304;6.866;2022-09-13T18:19:07;20.50;99.90
25128;DHT22;13107;51.304;6.866;2022-09-13T18:23:09;20.40;99.90
25128;DHT22;13107;51.304;6.866;2022-09-13T18:27:11;20.30;99.90
25128;DHT22;13107;51.304;6.866;2022-09-13T18:31:15;20.30;99.90
25128;DHT22;13107;51.304;6.866;2022-09-13T18:35:17;20.20;99.90
25128;DHT22;13107;51.304;6.866;2022-09-13T18:39:20;20.10;99.90
25128;DHT22;13107;51.304;6.866;2022-09-13T18:43:23;20.10;99.90
25128;DHT22;13107;51.304;6.866;2022-09-13T18:47:24;20.00;99.90
25128;DHT22;13107;51.304;6.866;2022-09-13T18:51:44;20.00;99.90
25128;DHT22;13107;51.304;6.866;2022-09-13T18:55:46;20.00;99.90
25128;DHT22;13107;51.304;6.866;2022-09-13T18:59:47;19.90;99.90
25128;DHT22;13107;51.304;6.866;2022-09-13T19:03:52;19.80;99.90
25128;DHT22;13107;51.304;6.866;2022-09-13T19:07:53;19.80;99.90
25128;DHT22;13107;51.304;6.866;2022-09-13T19:11:56;19.80;99.90
25128;DHT22;13107;51.304;6.866;2022-09-13T19:15:59;19.70;99.90
25128;DHT22;13107;51.304;6.866;2022-09-13T19:20:01;19.70;99.90
25128;DHT22;13107;51.304;6.866;2022-09-13T19:24:04;19.60;99.90
25128;DHT22;13107;51.304;6.866;2022-09-13T19:28:13;19.50;99.90
25128;DHT22;13107;51.304;6.866;2022-09-13T19:32:14;19.40;99.90
25128;DHT22;13107;51.304;6.866;2022-09-13T19:36:22;19.40;99.90
25128;DHT22;13107;51.304;6.866;2022-09-13T19:40:23;19.30;99.90
25128;DHT22;13107;51.304;6.866;2022-09-13T19:44:25;19.30;99.90
25128;DHT22;13107;51.304;6.866;2022-09-13T19:48:28;19.30;99.90
25128;DHT22;13107;51.304;6.866;2022-09-13T19:52:40;19.30;99.90
25128;DHT22;13107;51.304;6.866;2022-09-13T19:56:42;19.20;99.90
25128;DHT22;13107;51.304;6.866;2022-09-13T20:00:44;19.20;99.90
25128;DHT22;13107;51.304;6.866;2022-09-13T20:04:46;19.20;99.90
25128;DHT22;13107;51.304;6.866;2022-09-13T20:08:49;19.20;99.90
25128;DHT22;13107;51.304;6.866;2022-09-13T20:12:50;19.10;99.90
25128;DHT22;13107;51.304;6.866;2022-09-13T20:16:54;19.10;99.90
25128;DHT22;13107;51.304;6.866;2022-09-13T20:21:04;19.10;99.90
25128;DHT22;13107;51.304;6.866;2022-09-13T20:25:07;19.00;99.90
25128;DHT22;13107;51.304;6.866;2022-09-13T20:29:09;19.10;99.90
25128;DHT22;13107;51.304;6.866;2022-09-13T20:33:11;19.00;99.90
25128;DHT22;13107;51.304;6.866;2022-09-13T20:37:13;19.00;99.90
25128;DHT22;13107;51.304;6.866;2022-09-13T20:41:15;18.90;99.90
25128;DHT22;13107;51.304;6.866;2022-09-13T20:45:17;18.90;99.90
25128;DHT22;13107;51.304;6.866;2022-09-13T20:49:19;19.00;99.90
25128;DHT22;13107;51.304;6.866;2022-09-13T20:53:20;18.90;99.90
25128;DHT22;13107;51.304;6.866;2022-09-13T20:57:22;18.90;99.90
25128;DHT22;13107;51.304;6.866;2022-09-13T21:01:26;18.90;99.90
25128;DHT22;13107;51.304;6.866;2022-09-13T21:05:28;18.80;99.90
25128;DHT22;13107;51.304;6.866;2022-09-13T21:09:30;18.70;99.90
25128;DHT22;13107;51.304;6.866;2022-09-13T21:13:34;18.70;99.90
25128;DHT22;13107;51.304;6.866;2022-09-13T21:17:36;18.60;99.90
25128;DHT22;13107;51.304;6.866;2022-09-13T21:21:39;18.50;99.90
25128;DHT22;13107;51.304;6.866;2022-09-13T21:25:42;18.40;99.90
25128;DHT22;13107;51.304;6.866;2022-09-13T21:29:43;18.30;99.90
25128;DHT22;13107;51.304;6.866;2022-09-13T21:33:45;18.30;99.90
25128;DHT22;13107;51.304;6.866;2022-09-13T21:37:47;18.10;99.90
25128;DHT22;13107;51.304;6.866;2022-09-13T21:41:49;18.10;99.90
25128;DHT22;13107;51.304;6.866;2022-09-13T21:46:12;18.00;99.90
25128;DHT22;13107;51.304;6.866;2022-09-13T21:50:17;17.90;99.90
25128;DHT22;13107;51.304;6.866;2022-09-13T21:54:19;17.80;99.90
25128;DHT22;13107;51.304;6.866;2022-09-13T21:58:21;17.70;99.90
25128;DHT22;13107;51.304;6.866;2022-09-13T22:02:22;17.50;99.90
25128;DHT22;13107;51.304;6.866;2022-09-13T22:06:25;17.40;99.90
25128;DHT22;13107;51.304;6.866;2022-09-13T22:10:34;17.30;99.90
25128;DHT22;13107;51.304;6.866;2022-09-13T22:14:36;17.20;99.90
25128;DHT22;13107;51.304;6.866;2022-09-13T22:18:38;17.10;99.90
25128;DHT22;13107;51.304;6.866;2022-09-13T22:22:40;17.10;99.90
25128;DHT22;13107;51.304;6.866;2022-09-13T22:26:42;17.00;99.90
25128;DHT22;13107;51.304;6.866;2022-09-13T22:30:44;17.00;99.90
25128;DHT22;13107;51.304;6.866;2022-09-13T22:34:46;16.90;99.90
25128;DHT22;13107;51.304;6.866;2022-09-13T22:38:48;16.90;99.90
25128;DHT22;13107;51.304;6.866;2022-09-13T22:42:55;16.90;99.90
25128;DHT22;13107;51.304;6.866;2022-09-13T22:46:57;16.90;99.90
25128;DHT22;13107;51.304;6.866;2022-09-13T22:51:00;16.90;99.90
25128;DHT22;13107;51.304;6.866;2022-09-13T22:55:02;16.90;99.90
25128;DHT22;13107;51.304;6.866;2022-09-13T22:59:16;16.80;99.90
25128;DHT22;13107;51.304;6.866;2022-09-13T23:03:18;16.80;99.90
25128;DHT22;13107;51.304;6.866;2022-09-13T23:07:20;16.80;99.90
25128;DHT22;13107;51.304;6.866;2022-09-13T23:11:36;16.70;99.90
25128;DHT22;13107;51.304;6.866;2022-09-13T23:15:38;16.70;99.90
25128;DHT22;13107;51.304;6.866;2022-09-13T23:19:39;16.60;99.90
25128;DHT22;13107;51.304;6.866;2022-09-13T23:23:41;16.60;99.90
25128;DHT22;13107;51.304;6.866;2022-09-13T23:27:43;16.60;99.90
25128;DHT22;13107;51.304;6.866;2022-09-13T23:31:46;16.60;99.90
25128;DHT22;13107;51.304;6.866;2022-09-13T23:35:48;16.50;99.90
25128;DHT22;13107;51.304;6.866;2022-09-13T23:39:51;16.50;99.90
25128;DHT22;13107;51.304;6.866;2022-09-13T23:43:53;16.50;99.90
25128;DHT22;13107;51.304;6.866;2022-09-13T23:47:54;16.50;99.90
25128;DHT22;13107;51.304;6.866;2022-09-13T23:51:56;16.40;99.90
25128;DHT22;13107;51.304;6.866;2022-09-13T23:55:58;16.50;99.90
